Time;durP1;ratioP1;P1;durP2;ratioP2;P2;SDS_P1;SDS_P2;PMS_P1;PMS_P2;Temp;Humidity;BMP_temperature;BMP_pressure;BME280_temperature;BME280_humidity;BME280_pressure;Samples;Min_cycle;Max_cycle;Signal;HPM_P1;HPM_P2
2021/12/28 00:01:22;;;;;;;35.50;13.38;;;;;;;-7.21;100.00;98331.47;4300283;33;20048;-77
2021/12/28 00:03:48;;;;;;;28.40;12.90;;;;;;;-7.42;100.00;98288.16;4301224;33;20033;-75
2021/12/28 00:06:15;;;;;;;40.78;12.43;;;;;;;-7.14;100.00;98340.34;4306520;33;20073;-74
2021/12/28 00:08:43;;;;;;;28.30;10.48;;;;;;;-7.64;100.00;98247.66;4302495;33;20058;-75
2021/12/28 00:11:10;;;;;;;48.00;13.05;;;;;;;-7.26;100.00;98292.66;4299622;33;20029;-76
2021/12/28 00:13:37;;;;;;;19.45;8.95;;;;;;;-7.06;100.00;98335.16;4306123;33;20040;-79
2021/12/28 00:18:34;;;;;;;9.95;4.07;;;;;;;-6.96;100.00;98341.09;4296072;33;20041;-74
2021/12/28 00:21:03;;;;;;;30.12;12.20;;;;;;;-7.17;100.00;98296.19;4301085;33;20033;-73
2021/12/28 00:23:37;;;;;;;38.30;12.15;;;;;;;-6.90;100.00;98338.87;4306972;33;20075;-76
2021/12/28 00:26:07;;;;;;;38.60;13.85;;;;;;;-6.93;100.00;98345.22;4308651;33;20449;-74
2021/12/28 00:28:34;;;;;;;30.37;14.15;;;;;;;-7.50;100.00;98248.87;4305139;33;20378;-74
2021/12/28 00:31:04;;;;;;;41.15;15.70;;;;;;;-6.95;100.00;98337.53;4307298;33;20088;-75
2021/12/28 00:33:32;;;;;;;45.97;13.88;;;;;;;-6.98;100.00;98347.47;4307825;33;20049;-74
2021/12/28 00:35:58;;;;;;;28.73;12.20;;;;;;;-6.84;100.00;98343.47;4303265;33;20074;-74
2021/12/28 00:38:26;;;;;;;40.83;12.52;;;;;;;-6.88;100.00;98342.13;4302601;33;20058;-74
2021/12/28 00:40:57;;;;;;;33.47;14.60;;;;;;;-6.85;100.00;98347.06;4304541;33;20119;-74
2021/12/28 00:43:26;;;;;;;26.00;11.57;;;;;;;-7.03;100.00;98342.72;4290703;33;20054;-76
2021/12/28 00:45:53;;;;;;;38.40;16.70;;;;;;;-7.00;100.00;98313.62;4308166;33;20119;-74
2021/12/28 00:48:19;;;;;;;10.20;6.62;;;;;;;-6.97;100.00;98334.25;4308357;33;20032;-75
2021/12/28 00:50:48;;;;;;;35.58;12.77;;;;;;;-6.84;100.00;98323.34;4306596;33;20067;-74
2021/12/28 00:53:15;;;;;;;28.33;11.57;;;;;;;-6.93;100.00;98319.84;4304851;33;20041;-76
2021/12/28 00:55:42;;;;;;;37.40;11.25;;;;;;;-7.06;100.00;98292.47;4304533;33;20079;-75
2021/12/28 00:58:08;;;;;;;34.05;15.00;;;;;;;-6.77;100.00;98319.13;4304104;33;20045;-74
2021/12/28 01:00:37;;;;;;;27.27;11.45;;;;;;;-6.89;100.00;98324.78;4301489;33;20046;-74
2021/12/28 01:03:06;;;;;;;27.08;12.90;;;;;;;-6.94;100.00;98286.81;4307082;33;20072;-74
2021/12/28 01:05:33;;;;;;;27.15;11.52;;;;;;;-6.95;100.00;98287.78;4304112;33;20168;-74
2021/12/28 01:08:01;;;;;;;34.25;11.90;;;;;;;-6.80;100.00;98323.84;4291693;33;20115;-74
2021/12/28 01:10:35;;;;;;;19.12;7.57;;;;;;;-6.71;100.00;98328.16;4306179;33;20032;-74
2021/12/28 01:13:02;;;;;;;31.50;11.18;;;;;;;-6.63;100.00;98320.34;4303406;33;20041;-75
2021/12/28 01:15:30;;;;;;;27.65;12.77;;;;;;;-6.70;100.00;98319.34;4302194;33;20059;-75
2021/12/28 01:17:57;;;;;;;30.23;12.07;;;;;;;-6.97;100.00;98318.53;4308604;33;20025;-74
2021/12/28 01:20:25;;;;;;;29.27;11.43;;;;;;;-6.89;100.00;98327.41;4311771;33;20476;-76
2021/12/28 01:22:51;;;;;;;26.12;9.85;;;;;;;-6.68;100.00;98330.47;4311357;33;20029;-75
2021/12/28 01:25:19;;;;;;;26.65;10.98;;;;;;;-6.94;100.00;98278.97;4311181;33;20025;-77
2021/12/28 01:27:46;;;;;;;25.50;10.52;;;;;;;-6.67;100.00;98323.41;4312783;33;20503;-75
2021/12/28 01:30:15;;;;;;;32.10;12.68;;;;;;;-6.63;100.00;98314.28;4312807;33;20079;-75
2021/12/28 01:32:41;;;;;;;18.37;6.60;;;;;;;-6.70;100.00;98308.87;4309832;33;20144;-75
2021/12/28 01:35:10;;;;;;;26.83;10.70;;;;;;;-6.69;100.00;98305.25;4311651;33;20051;-79
2021/12/28 01:37:38;;;;;;;24.87;11.50;;;;;;;-6.62;100.00;98316.75;4310926;33;20053;-75
2021/12/28 01:40:08;;;;;;;15.40;7.95;;;;;;;-6.70;100.00;98298.38;4312184;33;20049;-75
2021/12/28 01:43:00;;;;;;;25.77;9.98;;;;;;;-6.66;100.00;98299.69;4311514;33;20041;-76
2021/12/28 01:45:52;;;;;;;29.58;12.57;;;;;;;-6.55;100.00;98305.66;4312167;33;20243;-75
2021/12/28 01:48:30;;;;;;;26.90;12.02;;;;;;;-6.62;100.00;98301.03;4306137;33;20041;-73
2021/12/28 01:51:03;;;;;;;35.78;12.43;;;;;;;-6.63;100.00;98299.38;4312111;33;20079;-74
2021/12/28 01:53:31;;;;;;;35.45;13.45;;;;;;;-6.58;100.00;98294.50;4309577;33;20102;-75
2021/12/28 01:56:03;;;;;;;26.73;8.90;;;;;;;-6.73;100.00;98290.84;4311792;33;20401;-74
2021/12/28 01:58:29;;;;;;;;;;;;;;;-7.05;100.00;98237.38;4310236;33;20404;-74
2021/12/28 02:00:56;;;;;;;25.40;9.38;;;;;;;-6.69;100.00;98278.25;4311163;33;19976;-73
2021/12/28 02:03:25;;;;;;;22.65;8.50;;;;;;;-6.68;100.00;98259.75;4312212;33;20375;-73
2021/12/28 02:05:52;;;;;;;19.10;8.35;;;;;;;-6.51;100.00;98265.88;4311802;33;20048;-73
2021/12/28 02:08:20;;;;;;;24.37;10.35;;;;;;;-6.47;100.00;98261.13;4309574;33;20048;-75
2021/12/28 02:10:48;;;;;;;23.98;9.10;;;;;;;-6.65;100.00;98251.59;4310348;33;20066;-73
2021/12/28 02:13:16;;;;;;;15.05;6.60;;;;;;;-6.68;100.00;98248.47;4311329;33;20070;-73
2021/12/28 02:15:45;;;;;;;6.90;3.78;;;;;;;-6.82;100.00;98208.00;4296923;33;20059;-73
2021/12/28 02:18:14;;;;;;;27.83;10.32;;;;;;;-6.84;100.00;98207.34;4311236;33;20103;-77
2021/12/28 02:20:41;;;;;;;25.30;11.27;;;;;;;-6.98;100.00;98211.38;4298285;33;20096;-74
2021/12/28 02:23:08;;;;;;;19.08;8.63;;;;;;;-6.91;100.00;98242.97;4311535;33;20041;-73
2021/12/28 02:25:36;;;;;;;18.58;8.38;;;;;;;-6.94;100.00;98238.88;4311263;33;20041;-77
2021/12/28 02:28:06;;;;;;;10.02;5.65;;;;;;;-6.76;100.00;98246.66;4310263;33;20342;-75
2021/12/28 02:30:35;;;;;;;4.57;3.33;;;;;;;-6.71;100.00;98239.13;4295786;33;20391;-73
2021/12/28 02:33:03;;;;;;;20.98;8.05;;;;;;;-6.98;100.00;98196.50;4310561;33;20047;-74
2021/12/28 02:35:31;;;;;;;21.58;10.02;;;;;;;-6.89;100.00;98201.75;4311669;33;20450;-74
2021/12/28 02:37:58;;;;;;;25.85;13.10;;;;;;;-6.77;100.00;98234.53;4309647;33;20058;-74
2021/12/28 02:40:27;;;;;;;25.88;10.50;;;;;;;-6.98;100.00;98222.66;4309206;33;20376;-74
2021/12/28 02:42:57;;;;;;;27.17;11.05;;;;;;;-7.05;100.00;98197.28;4296246;33;20202;-75
2021/12/28 02:45:36;;;;;;;30.37;13.85;;;;;;;-7.03;100.00;98208.44;4311422;33;20074;-74
2021/12/28 02:48:09;;;;;;;22.20;8.60;;;;;;;-6.86;100.00;98236.31;4297536;33;20056;-77
2021/12/28 02:50:43;;;;;;;27.00;13.20;;;;;;;-6.86;100.00;98225.00;4311122;33;20071;-74
2021/12/28 02:53:11;;;;;;;22.23;11.63;;;;;;;-6.80;100.00;98230.41;4311275;33;20049;-74
2021/12/28 02:55:39;;;;;;;24.87;10.90;;;;;;;-7.08;100.00;98195.81;4309385;33;20048;-74
2021/12/28 02:58:09;;;;;;;15.32;8.30;;;;;;;-7.01;100.00;98185.53;4297525;33;20396;-78
2021/12/28 03:00:47;;;;;;;33.95;9.77;;;;;;;-6.68;100.00;98228.34;4310211;33;20075;-74
2021/12/28 03:03:20;;;;;;;24.23;8.60;;;;;;;-6.67;100.00;98234.38;4298398;33;20066;-74
2021/12/28 03:05:49;;;;;;;20.23;9.27;;;;;;;-6.62;100.00;98225.09;4311409;33;20099;-74
2021/12/28 03:08:18;;;;;;;20.27;8.82;;;;;;;-6.69;100.00;98231.94;4308490;33;20062;-74
2021/12/28 03:10:45;;;;;;;19.70;9.40;;;;;;;-6.62;100.00;98229.50;4309677;33;20049;-74
2021/12/28 03:13:28;;;;;;;26.00;9.88;;;;;;;-6.64;100.00;98229.66;4310026;33;20086;-74
2021/12/28 03:15:56;;;;;;;14.05;6.47;;;;;;;-6.59;100.00;98232.63;4308473;33;20053;-75
2021/12/28 03:18:22;;;;;;;25.83;11.00;;;;;;;-6.54;100.00;98223.47;4311494;33;20711;-74
2021/12/28 03:20:49;;;;;;;27.30;8.50;;;;;;;-6.74;100.00;98197.56;4310077;33;20037;-74
2021/12/28 03:23:19;;;;;;;24.65;9.48;;;;;;;-6.48;100.00;98217.59;4307096;33;20052;-74
2021/12/28 03:25:46;;;;;;;28.23;10.43;;;;;;;-6.63;100.00;98218.22;4308747;33;20431;-77
2021/12/28 03:28:22;;;;;;;24.80;9.70;;;;;;;-6.78;100.00;98191.00;4307493;33;20036;-75
2021/12/28 03:30:52;;;;;;;27.52;10.50;;;;;;;-6.84;100.00;98181.19;4310153;33;20053;-75
2021/12/28 03:33:20;;;;;;;24.05;10.98;;;;;;;-6.59;100.00;98222.16;4306265;33;20057;-74
2021/12/28 03:35:47;;;;;;;22.37;9.88;;;;;;;-6.64;100.00;98208.69;4304549;33;20094;-74
2021/12/28 03:38:14;;;;;;;22.23;7.93;;;;;;;-6.66;100.00;98220.34;4309143;33;20173;-75
2021/12/28 03:40:40;;;;;;;25.85;12.23;;;;;;;-6.67;100.00;98175.00;4295903;33;20155;-75
2021/12/28 03:43:07;;;;;;;21.80;7.57;;;;;;;-6.49;100.00;98210.69;4294306;33;20081;-75
2021/12/28 03:45:35;;;;;;;1.87;1.37;;;;;;;-6.66;100.00;98158.28;4282014;33;20063;-75
2021/12/28 03:48:01;;;;;;;19.42;8.82;;;;;;;-6.43;100.00;98202.19;4294603;33;20102;-75
2021/12/28 03:50:28;;;;;;;18.87;7.90;;;;;;;-6.75;100.00;98154.00;4295775;33;20083;-75
2021/12/28 03:52:55;;;;;;;13.40;5.60;;;;;;;-6.39;100.00;98190.44;4295850;33;20418;-74
2021/12/28 03:55:23;;;;;;;19.60;8.43;;;;;;;-6.52;100.00;98163.91;4309825;33;20469;-74
2021/12/28 03:57:51;;;;;;;26.48;9.57;;;;;;;-6.40;100.00;98183.53;4310639;33;20114;-77
2021/12/28 04:00:21;;;;;;;23.73;8.30;;;;;;;-6.47;100.00;98177.31;4311358;33;20044;-75
2021/12/28 04:02:48;;;;;;;26.52;13.02;;;;;;;-6.38;100.00;98197.31;4298254;33;20037;-74
2021/12/28 04:05:16;;;;;;;20.70;9.73;;;;;;;-6.53;100.00;98198.91;4313309;33;20036;-75
2021/12/28 04:07:44;;;;;;;25.88;9.25;;;;;;;-6.37;100.00;98192.88;4311644;33;20082;-78
2021/12/28 04:10:12;;;;;;;27.77;11.20;;;;;;;-6.34;100.00;98201.22;4311426;33;20084;-74
2021/12/28 04:12:40;;;;;;;21.23;8.13;;;;;;;-6.36;100.00;98200.59;4298426;33;20033;-74
2021/12/28 04:15:09;;;;;;;21.33;10.13;;;;;;;-6.22;100.00;98202.56;4312690;33;20074;-74
2021/12/28 04:17:37;;;;;;;27.65;11.23;;;;;;;-6.36;100.00;98195.34;4312283;33;20367;-75
2021/12/28 04:20:10;;;;;;;31.50;12.43;;;;;;;-6.69;100.00;98140.28;4309889;33;20067;-75
2021/12/28 04:22:38;;;;;;;31.80;11.82;;;;;;;-6.32;100.00;98201.87;4311434;33;20187;-75
2021/12/28 04:25:06;;;;;;;27.55;11.85;;;;;;;-6.32;100.00;98191.41;4300136;33;20036;-75
2021/12/28 04:27:32;;;;;;;32.03;13.82;;;;;;;-6.42;100.00;98154.88;4312481;33;20205;-79
2021/12/28 04:29:59;;;;;;;36.45;15.00;;;;;;;-6.36;100.00;98200.59;4311346;33;20416;-74
2021/12/28 04:32:26;;;;;;;32.90;12.10;;;;;;;-6.48;100.00;98191.38;4311270;33;20111;-75
2021/12/28 04:34:52;;;;;;;30.98;10.20;;;;;;;-6.29;100.00;98206.81;4313078;33;20495;-75
2021/12/28 04:37:19;;;;;;;29.77;11.93;;;;;;;-6.25;100.00;98197.66;4299167;33;20044;-76
2021/12/28 04:39:46;;;;;;;29.85;14.82;;;;;;;-6.48;100.00;98154.72;4310653;33;20045;-78
2021/12/28 04:42:12;;;;;;;29.35;11.88;;;;;;;-6.45;100.00;98183.22;4304503;33;20091;-75
2021/12/28 04:44:39;;;;;;;30.73;12.32;;;;;;;-6.31;100.00;98187.00;4296472;33;20168;-75
2021/12/28 04:47:06;;;;;;;25.58;9.85;;;;;;;-6.39;100.00;98178.13;4299832;33;20393;-74
2021/12/28 04:49:32;;;;;;;21.27;11.93;;;;;;;-6.55;100.00;98138.03;4297753;33;20053;-79
2021/12/28 04:52:01;;;;;;;28.12;11.48;;;;;;;-6.64;100.00;98135.38;4284688;33;20040;-74
2021/12/28 04:54:27;;;;;;;32.33;13.32;;;;;;;-6.33;100.00;98181.91;4297737;33;20063;-74
2021/12/28 04:56:54;;;;;;;30.23;13.90;;;;;;;-6.34;100.00;98190.75;4297229;33;20074;-74
2021/12/28 04:59:21;;;;;;;27.10;12.55;;;;;;;-6.72;100.00;98138.00;4297612;33;20391;-74
2021/12/28 05:01:48;;;;;;;33.63;13.18;;;;;;;-6.32;100.00;98191.41;4296126;33;20504;-75
2021/12/28 05:04:14;;;;;;;37.22;13.15;;;;;;;-6.32;100.00;98180.91;4298372;33;20083;-74
2021/12/28 05:06:42;;;;;;;27.70;13.35;;;;;;;-6.27;100.00;98197.00;4301055;33;20114;-74
2021/12/28 05:09:10;;;;;;;26.48;10.63;;;;;;;-6.68;100.00;98147.16;4302709;33;20402;-74
2021/12/28 05:11:39;;;;;;;36.35;14.85;;;;;;;-6.49;100.00;98153.06;4297496;33;20367;-78
2021/12/28 05:14:07;;;;;;;34.17;15.90;;;;;;;-6.28;100.00;98195.34;4300570;33;20078;-74
2021/12/28 05:16:35;;;;;;;22.75;10.82;;;;;;;-6.62;100.00;98154.38;4312188;33;20184;-75
2021/12/28 05:19:04;;;;;;;31.75;13.02;;;;;;;-6.34;100.00;98196.00;4299455;33;20115;-74
2021/12/28 05:21:32;;;;;;;24.20;10.15;;;;;;;-6.22;100.00;98202.56;4312063;33;20045;-78
2021/12/28 05:23:59;;;;;;;26.55;12.88;;;;;;;-6.23;100.00;98185.19;4309055;33;20070;-76
2021/12/28 05:26:25;;;;;;;25.42;10.35;;;;;;;-6.21;100.00;98183.25;4312034;33;20040;-74
2021/12/28 05:28:52;;;;;;;34.85;15.90;;;;;;;-6.40;100.00;98178.28;4297428;33;20059;-74
2021/12/28 05:31:20;;;;;;;31.17;12.75;;;;;;;-6.36;100.00;98189.28;4312559;33;20053;-74
2021/12/28 05:33:46;;;;;;;32.67;12.93;;;;;;;-6.22;100.00;98186.84;4310986;33;20325;-77
2021/12/28 05:36:13;;;;;;;22.83;10.15;;;;;;;-6.31;100.00;98166.84;4308012;33;20095;-73
2021/12/28 05:38:40;;;;;;;28.67;10.70;;;;;;;-6.39;100.00;98124.94;4308068;33;20465;-73
2021/12/28 05:41:06;;;;;;;31.33;12.95;;;;;;;-6.09;100.00;98177.69;4310806;33;20037;-72
2021/12/28 05:43:33;;;;;;;36.42;14.73;;;;;;;-6.23;100.00;98171.28;4298309;33;20053;-73
2021/12/28 05:46:00;;;;;;;40.08;16.48;;;;;;;-6.46;100.00;98137.03;4296199;33;20049;-76
2021/12/28 05:48:26;;;;;;;37.35;16.58;;;;;;;-6.10;100.00;98161.12;4297030;33;20958;-72
2021/12/28 05:50:53;;;;;;;24.95;11.43;;;;;;;-6.43;100.00;98115.75;4297482;33;20399;-73
2021/12/28 05:53:20;;;;;;;40.25;14.20;;;;;;;-6.14;100.00;98172.09;4302282;33;20044;-73
2021/12/28 05:55:46;;;;;;;32.83;13.25;;;;;;;-6.27;100.00;98160.31;4312344;33;20036;-73
2021/12/28 05:58:13;;;;;;;42.00;16.20;;;;;;;-6.19;100.00;98175.19;4296874;33;20432;-76
2021/12/28 06:00:40;;;;;;;28.12;12.73;;;;;;;-6.16;100.00;98174.06;4297610;33;20074;-74
2021/12/28 06:03:06;;;;;;;30.80;14.23;;;;;;;-6.15;100.00;98166.03;4309291;33;20378;-72
2021/12/28 06:05:33;;;;;;;33.47;15.93;;;;;;;-6.32;100.00;98146.88;4311261;33;20074;-73
2021/12/28 06:08:00;;;;;;;33.30;17.12;;;;;;;-6.23;100.00;98159.00;4311733;33;20396;-73
2021/12/28 06:10:26;;;;;;;35.55;16.10;;;;;;;-6.59;100.00;98120.03;4305379;33;20472;-74
2021/12/28 06:12:53;;;;;;;25.25;10.18;;;;;;;-6.25;100.00;98160.97;4311920;33;20056;-73
2021/12/28 06:15:20;;;;;;;31.58;11.90;;;;;;;-6.11;100.00;98171.75;4297605;33;20070;-73
2021/12/28 06:17:47;;;;;;;39.75;16.83;;;;;;;-6.29;100.00;98175.34;4310714;33;20041;-73
2021/12/28 06:20:13;;;;;;;32.92;14.20;;;;;;;-6.62;100.00;98128.19;4309632;33;20083;-77
2021/12/28 06:22:40;;;;;;;37.55;15.77;;;;;;;-6.47;100.00;98124.94;4310062;33;20062;-73
2021/12/28 06:25:07;;;;;;;30.33;13.50;;;;;;;-6.41;100.00;98171.44;4303436;33;20061;-73
2021/12/28 06:27:34;;;;;;;35.90;14.55;;;;;;;-6.22;100.00;98181.59;4308778;33;20074;-73
2021/12/28 06:30:00;;;;;;;29.45;12.07;;;;;;;-6.11;100.00;98177.84;4310213;33;20045;-73
2021/12/28 06:32:27;;;;;;;16.95;8.18;;;;;;;-6.05;100.00;98182.44;4311349;33;20044;-75
2021/12/28 06:34:53;;;;;;;31.25;12.73;;;;;;;-5.97;100.00;98181.59;4297239;33;20044;-73
2021/12/28 06:37:20;;;;;;;23.80;11.12;;;;;;;-6.18;100.00;98144.59;4310734;33;20112;-74
2021/12/28 06:39:46;;;;;;;30.25;12.50;;;;;;;-6.29;100.00;98130.81;4311176;33;20438;-73
2021/12/28 06:42:13;;;;;;;20.65;9.80;;;;;;;-6.36;100.00;98131.66;4310498;33;20082;-73
2021/12/28 06:44:42;;;;;;;34.60;13.73;;;;;;;-6.03;100.00;98180.47;4310331;33;20041;-75
2021/12/28 06:47:09;;;;;;;28.77;10.77;;;;;;;-6.27;100.00;98156.84;4309600;33;20053;-73
2021/12/28 06:49:36;;;;;;;26.37;12.23;;;;;;;-6.30;100.00;98137.06;4310106;33;20477;-73
2021/12/28 06:52:03;;;;;;;16.52;6.43;;;;;;;-6.35;100.00;98134.13;4309268;33;20087;-72
2021/12/28 06:54:36;;;;;;;33.53;14.85;;;;;;;-6.08;100.00;98159.16;4302450;33;20461;-74
2021/12/28 06:57:08;;;;;;;35.28;15.70;;;;;;;-6.34;100.00;98120.00;4296840;33;20251;-73
2021/12/28 06:59:45;;;;;;;31.62;14.15;;;;;;;-6.42;100.00;98112.16;4296578;33;20465;-75
2021/12/28 07:02:16;;;;;;;31.52;15.48;;;;;;;-6.22;100.00;98160.62;4296526;33;20067;-75
2021/12/28 07:04:44;;;;;;;31.67;13.32;;;;;;;-6.18;100.00;98170.78;4293396;33;20040;-73
2021/12/28 07:07:12;;;;;;;36.72;13.98;;;;;;;-6.21;100.00;98193.72;4296532;33;20091;-73
2021/12/28 07:09:39;;;;;;;31.52;16.67;;;;;;;-6.44;100.00;98171.75;4303756;33;20374;-73
2021/12/28 07:12:06;;;;;;;29.48;12.05;;;;;;;-6.25;100.00;98197.66;4309855;33;20341;-73
2021/12/28 07:14:32;;;;;;;38.22;14.05;;;;;;;-6.08;100.00;98197.66;4309805;33;20138;-76
2021/12/28 07:16:59;;;;;;;37.08;13.57;;;;;;;-6.38;100.00;98155.41;4310325;33;20077;-74
2021/12/28 07:19:26;;;;;;;29.23;14.05;;;;;;;-6.09;100.00;98201.28;4308574;33;20053;-73
2021/12/28 07:21:54;;;;;;;33.20;15.15;;;;;;;-6.06;100.00;98190.47;4306723;33;20395;-73
2021/12/28 07:24:20;;;;;;;31.80;15.52;;;;;;;-6.35;100.00;98170.78;4294463;33;20041;-73
2021/12/28 07:26:47;;;;;;;37.05;12.43;;;;;;;-6.23;100.00;98192.25;4294985;33;20044;-77
2021/12/28 07:29:14;;;;;;;32.28;11.45;;;;;;;-6.06;100.00;98187.84;4295045;33;20057;-73
2021/12/28 07:31:40;;;;;;;36.22;14.70;;;;;;;-5.92;100.00;98196.78;4294714;33;20071;-73
2021/12/28 07:34:07;;;;;;;30.48;13.73;;;;;;;-6.06;100.00;98200.94;4296267;33;20044;-74
2021/12/28 07:36:34;;;;;;;40.20;14.73;;;;;;;-6.26;100.00;98143.59;4282116;33;20059;-74
2021/12/28 07:39:03;;;;;;;25.95;12.37;;;;;;;-5.87;100.00;98179.59;4292613;33;20049;-74
2021/12/28 07:41:29;;;;;;;14.43;6.28;;;;;;;-5.90;100.00;98169.44;4296600;33;20071;-74
2021/12/28 07:43:58;;;;;;;27.83;12.02;;;;;;;-5.87;100.00;98150.75;4296757;33;20037;-74
2021/12/28 07:46:25;;;;;;;28.67;13.05;;;;;;;-6.12;100.00;98120.34;4296747;33;20052;-74
2021/12/28 07:48:59;;;;;;;32.42;13.93;;;;;;;-6.21;100.00;98120.34;4294569;33;20046;-75
2021/12/28 07:51:25;;;;;;;28.23;12.68;;;;;;;-6.05;100.00;98118.69;4283600;33;20310;-74
2021/12/28 07:53:52;;;;;;;42.22;15.13;;;;;;;-6.12;100.00;98112.47;4302742;33;20049;-74
2021/12/28 07:56:19;;;;;;;27.10;10.90;;;;;;;-5.85;100.00;98151.41;4309469;33;20074;-74
2021/12/28 07:58:45;;;;;;;18.92;9.40;;;;;;;-5.80;100.00;98142.22;4307850;33;20415;-77
2021/12/28 08:01:12;;;;;;;31.37;10.52;;;;;;;-5.75;100.00;98145.16;4295904;33;20816;-74
2021/12/28 08:03:39;;;;;;;22.40;10.25;;;;;;;-5.75;100.00;98118.94;4308911;33;20036;-74
2021/12/28 08:06:05;;;;;;;22.02;10.27;;;;;;;-5.93;100.00;98080.63;4310624;33;20358;-74
2021/12/28 08:08:32;;;;;;;35.35;13.90;;;;;;;-6.03;100.00;98082.63;4309437;33;20083;-74
2021/12/28 08:10:59;;;;;;;30.40;13.68;;;;;;;-5.84;100.00;98132.06;4306494;33;20037;-74
2021/12/28 08:13:25;;;;;;;35.00;12.10;;;;;;;-6.10;100.00;98079.87;4310094;33;20092;-74
2021/12/28 08:15:52;;;;;;;36.47;14.27;;;;;;;-6.08;100.00;98103.28;4296048;33;20098;-73
2021/12/28 08:18:19;;;;;;;28.85;15.48;;;;;;;-6.18;100.00;98102.66;4308816;33;20040;-74
2021/12/28 08:20:46;;;;;;;25.30;11.85;;;;;;;-5.75;100.00;98145.16;4295243;33;20048;-75
2021/12/28 08:23:14;;;;;;;15.35;7.45;;;;;;;-5.62;100.00;98140.19;4305661;33;20076;-74
2021/12/28 08:25:41;;;;;;;36.80;15.35;;;;;;;-5.88;100.00;98094.03;4290916;33;20078;-74
2021/12/28 08:28:08;;;;;;;28.30;14.20;;;;;;;-5.61;100.00;98131.34;4298065;33;20041;-74
2021/12/28 08:30:36;;;;;;;28.38;14.18;;;;;;;-5.72;100.00;98139.59;4307749;33;20066;-74
2021/12/28 08:33:05;;;;;;;31.55;14.98;;;;;;;-6.02;100.00;98081.66;4293580;33;20024;-75
2021/12/28 08:35:32;;;;;;;40.12;17.83;;;;;;;-5.56;100.00;98115.94;4308889;33;20138;-73
2021/12/28 08:37:59;;;;;;;24.77;11.90;;;;;;;-5.99;100.00;98086.56;4309058;33;20080;-74
2021/12/28 08:40:26;;;;;;;32.95;15.30;;;;;;;-6.01;100.00;98099.03;4300764;33;20490;-73
2021/12/28 08:42:53;;;;;;;34.03;17.27;;;;;;;-5.66;100.00;98144.16;4300236;33;20091;-76
2021/12/28 08:45:20;;;;;;;26.20;13.05;;;;;;;-5.63;100.00;98148.25;4298655;33;20060;-74
2021/12/28 08:47:49;;;;;;;34.35;14.57;;;;;;;-5.81;100.00;98109.13;4298358;33;20045;-73
2021/12/28 08:50:17;;;;;;;28.87;11.98;;;;;;;-5.57;100.00;98143.13;4311615;33;20041;-74
2021/12/28 08:52:44;;;;;;;33.28;13.32;;;;;;;-5.42;100.00;98135.41;4305819;33;20403;-79
2021/12/28 08:55:11;;;;;;;31.25;15.15;;;;;;;-5.72;100.00;98102.87;4310190;33;20066;-73
2021/12/28 08:57:38;;;;;;;29.80;11.68;;;;;;;-5.47;100.00;98143.78;4311264;33;20065;-73
2021/12/28 09:00:12;;;;;;;29.70;13.23;;;;;;;-5.41;100.00;98147.50;4312776;33;20049;-74
2021/12/28 09:02:39;;;;;;;26.70;12.95;;;;;;;-5.42;100.00;98145.09;4311572;33;20058;-73
2021/12/28 09:05:06;;;;;;;30.10;12.57;;;;;;;-5.52;100.00;98124.28;4309923;33;20045;-74
2021/12/28 09:07:33;;;;;;;31.17;14.30;;;;;;;-5.32;100.00;98135.19;4303358;33;20069;-73
2021/12/28 09:10:00;;;;;;;27.08;12.32;;;;;;;-5.60;100.00;98122.50;4297246;33;20454;-73
2021/12/28 09:12:26;;;;;;;35.03;16.25;;;;;;;-5.44;100.00;98120.81;4298304;33;20066;-73
2021/12/28 09:14:53;;;;;;;32.42;14.73;;;;;;;-5.54;100.00;98115.75;4303408;33;20435;-77
2021/12/28 09:17:20;;;;;;;19.83;8.25;;;;;;;-5.79;100.00;98075.66;4311443;33;20071;-75
2021/12/28 09:19:46;;;;;;;35.05;14.55;;;;;;;-5.37;100.00;98100.78;4302038;33;20087;-74
2021/12/28 09:22:13;;;;;;;22.80;10.35;;;;;;;-5.36;100.00;98113.72;4295881;33;20080;-76
2021/12/28 09:24:39;;;;;;;27.77;11.50;;;;;;;-5.42;100.00;98118.84;4296727;33;20041;-75
2021/12/28 09:27:06;;;;;;;30.83;14.60;;;;;;;-5.27;100.00;98117.13;4305340;33;20133;-79
2021/12/28 09:29:33;;;;;;;33.42;15.13;;;;;;;-5.24;100.00;98111.53;4311742;33;20126;-75
2021/12/28 09:32:00;;;;;;;14.52;6.93;;;;;;;-5.43;100.00;98098.84;4312649;33;20052;-75
2021/12/28 09:34:27;;;;;;;34.75;15.02;;;;;;;-5.21;100.00;98082.31;4310794;33;20067;-74
2021/12/28 09:36:54;;;;;;;29.87;12.23;;;;;;;-5.25;100.00;98104.66;4311282;33;20099;-74
2021/12/28 09:39:23;;;;;;;23.75;11.40;;;;;;;-5.51;100.00;98053.28;4296983;33;20062;-74
2021/12/28 09:41:55;;;;;;;24.77;11.15;;;;;;;-5.38;100.00;98093.88;4312150;33;20057;-75
2021/12/28 09:44:22;;;;;;;27.42;13.18;;;;;;;-5.40;100.00;98101.94;4308397;33;20101;-74
2021/12/28 09:46:49;;;;;;;32.17;10.65;;;;;;;-5.26;100.00;98089.91;4305375;33;20041;-74
2021/12/28 09:49:15;;;;;;;24.02;11.38;;;;;;;-5.27;100.00;98090.88;4301716;33;20063;-80
2021/12/28 09:51:43;;;;;;;22.08;11.07;;;;;;;-5.28;100.00;98078.78;4304951;33;20390;-74
2021/12/28 09:54:09;;;;;;;31.40;15.73;;;;;;;-5.47;100.00;98093.94;4297036;33;20059;-74
2021/12/28 09:56:36;;;;;;;30.12;13.43;;;;;;;-5.42;100.00;98092.62;4297439;33;20071;-75
2021/12/28 09:59:04;;;;;;;34.40;16.25;;;;;;;-5.66;100.00;98070.72;4297688;33;20504;-79
2021/12/28 10:01:31;;;;;;;34.47;12.80;;;;;;;-5.66;100.00;98070.72;4283646;33;20033;-74
2021/12/28 10:03:59;;;;;;;28.02;11.50;;;;;;;-5.66;100.00;98039.25;4296968;33;20052;-74
2021/12/28 10:06:28;;;;;;;23.12;10.80;;;;;;;-5.44;100.00;98047.34;4297350;33;20067;-74
2021/12/28 10:09:03;;;;;;;25.70;13.93;;;;;;;-5.21;100.00;98063.16;4296150;33;20041;-74
2021/12/28 10:11:35;;;;;;;29.60;11.85;;;;;;;-5.19;100.00;98061.97;4296220;33;20061;-74
2021/12/28 10:14:17;;;;;;;22.10;11.40;;;;;;;-5.15;100.00;98052.78;4295336;33;20066;-74
2021/12/28 10:16:51;;;;;;;;;;;;;;;-5.16;100.00;98056.38;4301185;33;20107;-79
2021/12/28 10:19:34;;;;;;;22.95;11.88;;;;;;;-5.08;100.00;98052.09;4302126;33;19983;-73
2021/12/28 10:22:19;;;;;;;30.50;13.62;;;;;;;-5.51;100.00;98011.28;4309227;33;20063;-74
2021/12/28 10:24:46;;;;;;;29.90;11.63;;;;;;;-5.32;100.00;98056.47;4297994;33;20359;-75
2021/12/28 10:27:16;;;;;;;34.15;17.00;;;;;;;-5.51;100.00;98060.34;4306974;33;20443;-76
2021/12/28 10:29:43;;;;;;;30.80;13.57;;;;;;;-5.64;100.00;98062.69;4305438;33;20122;-74
2021/12/28 10:32:23;;;;;;;36.08;14.75;;;;;;;-5.53;100.00;98055.25;4296792;33;20130;-74
2021/12/28 10:35:03;;;;;;;24.45;10.80;;;;;;;-5.34;100.00;98063.72;4302780;33;20074;-73
2021/12/28 10:37:33;;;;;;;31.33;12.68;;;;;;;-5.27;100.00;98062.00;4300304;33;20037;-74
2021/12/28 10:40:03;;;;;;;32.40;11.82;;;;;;;-5.21;100.00;98063.97;4298645;33;20057;-73
2021/12/28 10:42:44;;;;;;;30.75;15.60;;;;;;;-5.37;100.00;98014.19;4301948;33;20201;-75
2021/12/28 10:45:22;;;;;;;36.47;16.52;;;;;;;-5.41;100.00;98052.25;4295884;33;20059;-73
2021/12/28 10:47:50;;;;;;;25.92;12.70;;;;;;;-5.35;100.00;98033.19;4294668;33;20652;-74
2021/12/28 10:50:21;;;;;;;29.10;12.07;;;;;;;-5.51;100.00;98041.97;4298438;33;20148;-73
2021/12/28 10:52:59;;;;;;;24.52;13.18;;;;;;;-5.28;100.00;98057.78;4306802;33;20124;-74
2021/12/28 10:55:28;;;;;;;26.12;13.85;;;;;;;-5.30;100.00;98068.44;4294158;33;20048;-74
2021/12/28 10:57:54;;;;;;;29.77;15.10;;;;;;;-5.27;100.00;98064.63;4300511;33;20078;-74
2021/12/28 11:00:28;;;;;;;24.08;12.13;;;;;;;-5.66;100.00;98026.16;4286433;33;20071;-75
2021/12/28 11:03:17;;;;;;;26.67;12.23;;;;;;;-5.45;100.00;98022.13;4298196;33;20060;-74
2021/12/28 11:05:49;;;;;;;32.30;13.25;;;;;;;-5.11;100.00;98056.66;4302086;33;20086;-74
2021/12/28 11:08:17;;;;;;;26.45;12.50;;;;;;;-5.19;100.00;98046.22;4293795;33;20050;-74
2021/12/28 11:10:47;;;;;;;25.05;14.77;;;;;;;-5.00;100.00;98038.91;4294487;33;20098;-76
2021/12/28 11:13:14;;;;;;;28.83;13.70;;;;;;;-5.45;100.00;97993.25;4303064;33;20079;-76
2021/12/28 11:15:46;;;;;;;30.58;13.13;;;;;;;-5.42;100.00;98003.41;4310380;33;20068;-76
2021/12/28 11:18:22;;;;;;;28.50;14.15;;;;;;;-5.19;100.00;97993.72;4299351;33;20442;-74
2021/12/28 11:20:52;;;;;;;22.95;12.45;;;;;;;-5.31;100.00;97982.81;4292781;33;20041;-75